sensor_id;sensor_type;location;lat;lon;timestamp;P1;durP1;ratioP1;P2;durP2;ratioP2
72115;SDS011;59991;52.140;5.428;2023-03-01T00:00:18;15.40;;;12.23;;
72115;SDS011;59991;52.140;5.428;2023-03-01T00:00:50;13.02;;;11.68;;
72115;SDS011;59991;52.140;5.428;2023-03-01T00:01:23;12.70;;;11.40;;
72115;SDS011;59991;52.140;5.428;2023-03-01T00:01:56;13.32;;;12.00;;
72115;SDS011;59991;52.140;5.428;2023-03-01T00:02:27;13.13;;;11.70;;
72115;SDS011;59991;52.140;5.428;2023-03-01T00:02:59;14.20;;;12.80;;
72115;SDS011;59991;52.140;5.428;2023-03-01T00:03:30;13.10;;;11.65;;
72115;SDS011;59991;52.140;5.428;2023-03-01T00:04:03;13.55;;;11.07;;
72115;SDS011;59991;52.140;5.428;2023-03-01T00:04:34;12.27;;;11.13;;
72115;SDS011;59991;52.140;5.428;2023-03-01T00:05:06;14.65;;;12.18;;
72115;SDS011;59991;52.140;5.428;2023-03-01T00:05:44;14.05;;;12.65;;
72115;SDS011;59991;52.140;5.428;2023-03-01T00:06:17;15.43;;;11.90;;
72115;SDS011;59991;52.140;5.428;2023-03-01T00:06:49;13.17;;;11.57;;
72115;SDS011;59991;52.140;5.428;2023-03-01T00:07:20;12.38;;;10.98;;
72115;SDS011;59991;52.140;5.428;2023-03-01T00:07:52;12.93;;;11.60;;
72115;SDS011;59991;52.140;5.428;2023-03-01T00:08:25;13.10;;;11.77;;
72115;SDS011;59991;52.140;5.428;2023-03-01T00:08:57;13.90;;;12.35;;
72115;SDS011;59991;52.140;5.428;2023-03-01T00:09:28;15.90;;;11.88;;
72115;SDS011;59991;52.140;5.428;2023-03-01T00:09:59;13.07;;;11.68;;
72115;SDS011;59991;52.140;5.428;2023-03-01T00:10:31;14.18;;;12.20;;
72115;SDS011;59991;52.140;5.428;2023-03-01T00:11:06;15.00;;;12.00;;
72115;SDS011;59991;52.140;5.428;2023-03-01T00:11:49;15.82;;;11.40;;
72115;SDS011;59991;52.140;5.428;2023-03-01T00:12:21;12.57;;;11.37;;
72115;SDS011;59991;52.140;5.428;2023-03-01T00:12:53;11.50;;;10.35;;
72115;SDS011;59991;52.140;5.428;2023-03-01T00:13:24;16.38;;;12.07;;
72115;SDS011;59991;52.140;5.428;2023-03-01T00:13:57;14.65;;;12.50;;
72115;SDS011;59991;52.140;5.428;2023-03-01T00:14:32;12.90;;;11.50;;
72115;SDS011;59991;52.140;5.428;2023-03-01T00:15:03;13.55;;;12.18;;
72115;SDS011;59991;52.140;5.428;2023-03-01T00:15:39;16.73;;;12.00;;
72115;SDS011;59991;52.140;5.428;2023-03-01T00:16:14;15.02;;;12.38;;
72115;SDS011;59991;52.140;5.428;2023-03-01T00:16:47;13.98;;;12.55;;
72115;SDS011;59991;52.140;5.428;2023-03-01T00:17:19;13.13;;;11.73;;
72115;SDS011;59991;52.140;5.428;2023-03-01T00:17:50;14.00;;;12.03;;
72115;SDS011;59991;52.140;5.428;2023-03-01T00:18:21;17.25;;;14.32;;
72115;SDS011;59991;52.140;5.428;2023-03-01T00:18:54;13.43;;;11.45;;
72115;SDS011;59991;52.140;5.428;2023-03-01T00:19:26;13.52;;;12.27;;
72115;SDS011;59991;52.140;5.428;2023-03-01T00:19:57;14.20;;;12.75;;
72115;SDS011;59991;52.140;5.428;2023-03-01T00:20:29;14.68;;;13.18;;
72115;SDS011;59991;52.140;5.428;2023-03-01T00:21:00;14.75;;;13.07;;
72115;SDS011;59991;52.140;5.428;2023-03-01T00:21:32;14.68;;;12.43;;
72115;SDS011;59991;52.140;5.428;2023-03-01T00:22:04;14.80;;;13.27;;
72115;SDS011;59991;52.140;5.428;2023-03-01T00:22:36;14.13;;;12.35;;
72115;SDS011;59991;52.140;5.428;2023-03-01T00:23:08;13.77;;;12.23;;
72115;SDS011;59991;52.140;5.428;2023-03-01T00:23:39;15.75;;;12.68;;
72115;SDS011;59991;52.140;5.428;2023-03-01T00:24:12;15.20;;;11.88;;
72115;SDS011;59991;52.140;5.428;2023-03-01T00:24:43;14.63;;;13.13;;
72115;SDS011;59991;52.140;5.428;2023-03-01T00:25:15;18.15;;;13.48;;
72115;SDS011;59991;52.140;5.428;2023-03-01T00:25:46;15.95;;;13.13;;
72115;SDS011;59991;52.140;5.428;2023-03-01T00:26:18;16.80;;;12.30;;
72115;SDS011;59991;52.140;5.428;2023-03-01T00:26:54;14.48;;;12.75;;
72115;SDS011;59991;52.140;5.428;2023-03-01T00:27:26;14.25;;;12.75;;
72115;SDS011;59991;52.140;5.428;2023-03-01T00:27:58;14.02;;;12.63;;
72115;SDS011;59991;52.140;5.428;2023-03-01T00:28:29;14.67;;;13.17;;
72115;SDS011;59991;52.140;5.428;2023-03-01T00:29:02;15.25;;;12.90;;
72115;SDS011;59991;52.140;5.428;2023-03-01T00:29:34;15.07;;;13.02;;
72115;SDS011;59991;52.140;5.428;2023-03-01T00:30:06;14.13;;;12.68;;
72115;SDS011;59991;52.140;5.428;2023-03-01T00:30:38;14.20;;;12.20;;
72115;SDS011;59991;52.140;5.428;2023-03-01T00:31:11;14.73;;;13.20;;
72115;SDS011;59991;52.140;5.428;2023-03-01T00:31:44;14.45;;;12.20;;
72115;SDS011;59991;52.140;5.428;2023-03-01T00:32:15;14.02;;;12.63;;
72115;SDS011;59991;52.140;5.428;2023-03-01T00:32:46;14.50;;;13.00;;
72115;SDS011;59991;52.140;5.428;2023-03-01T00:33:18;18.13;;;12.48;;
72115;SDS011;59991;52.140;5.428;2023-03-01T00:33:52;12.57;;;11.07;;
72115;SDS011;59991;52.140;5.428;2023-03-01T00:34:28;16.50;;;13.18;;
72115;SDS011;59991;52.140;5.428;2023-03-01T00:34:59;15.88;;;11.73;;
72115;SDS011;59991;52.140;5.428;2023-03-01T00:35:31;14.35;;;12.85;;
72115;SDS011;59991;52.140;5.428;2023-03-01T00:36:03;16.77;;;12.70;;
72115;SDS011;59991;52.140;5.428;2023-03-01T00:36:36;15.75;;;12.65;;
72115;SDS011;59991;52.140;5.428;2023-03-01T00:37:08;13.73;;;12.20;;
72115;SDS011;59991;52.140;5.428;2023-03-01T00:37:39;15.02;;;12.85;;
72115;SDS011;59991;52.140;5.428;2023-03-01T00:38:12;14.60;;;12.23;;
72115;SDS011;59991;52.140;5.428;2023-03-01T00:38:44;14.10;;;12.07;;
72115;SDS011;59991;52.140;5.428;2023-03-01T00:39:16;17.13;;;13.57;;
72115;SDS011;59991;52.140;5.428;2023-03-01T00:39:48;17.60;;;14.23;;
72115;SDS011;59991;52.140;5.428;2023-03-01T00:40:19;13.80;;;12.32;;
72115;SDS011;59991;52.140;5.428;2023-03-01T00:40:51;15.10;;;13.60;;
72115;SDS011;59991;52.140;5.428;2023-03-01T00:41:22;17.30;;;14.57;;
72115;SDS011;59991;52.140;5.428;2023-03-01T00:41:55;15.10;;;13.45;;
72115;SDS011;59991;52.140;5.428;2023-03-01T00:42:27;14.15;;;12.55;;
72115;SDS011;59991;52.140;5.428;2023-03-01T00:42:59;16.67;;;12.25;;
72115;SDS011;59991;52.140;5.428;2023-03-01T00:43:31;15.57;;;14.02;;
72115;SDS011;59991;52.140;5.428;2023-03-01T00:44:07;13.60;;;12.20;;
72115;SDS011;59991;52.140;5.428;2023-03-01T00:44:39;13.17;;;11.73;;
72115;SDS011;59991;52.140;5.428;2023-03-01T00:45:11;16.67;;;12.45;;
72115;SDS011;59991;52.140;5.428;2023-03-01T00:45:44;14.07;;;12.57;;
72115;SDS011;59991;52.140;5.428;2023-03-01T00:46:18;14.27;;;12.68;;
72115;SDS011;59991;52.140;5.428;2023-03-01T00:46:51;16.33;;;13.93;;
72115;SDS011;59991;52.140;5.428;2023-03-01T00:47:22;15.13;;;13.65;;
72115;SDS011;59991;52.140;5.428;2023-03-01T00:47:54;14.68;;;13.02;;
72115;SDS011;59991;52.140;5.428;2023-03-01T00:48:25;14.38;;;12.93;;
72115;SDS011;59991;52.140;5.428;2023-03-01T00:48:57;18.52;;;13.70;;
72115;SDS011;59991;52.140;5.428;2023-03-01T00:49:28;14.52;;;12.98;;
72115;SDS011;59991;52.140;5.428;2023-03-01T00:50:00;14.27;;;11.73;;
72115;SDS011;59991;52.140;5.428;2023-03-01T00:50:31;14.63;;;13.10;;
72115;SDS011;59991;52.140;5.428;2023-03-01T00:51:36;17.90;;;13.80;;
72115;SDS011;59991;52.140;5.428;2023-03-01T00:52:00;14.32;;;11.98;;
72115;SDS011;59991;52.140;5.428;2023-03-01T00:52:32;15.82;;;13.55;;
72115;SDS011;59991;52.140;5.428;2023-03-01T00:53:03;14.32;;;12.30;;
72115;SDS011;59991;52.140;5.428;2023-03-01T00:53:36;15.85;;;13.68;;
72115;SDS011;59991;52.140;5.428;2023-03-01T00:54:08;15.68;;;13.20;;
72115;SDS011;59991;52.140;5.428;2023-03-01T00:54:40;14.65;;;13.15;;
72115;SDS011;59991;52.140;5.428;2023-03-01T00:55:11;14.13;;;12.75;;
72115;SDS011;59991;52.140;5.428;2023-03-01T00:55:43;15.37;;;13.10;;
72115;SDS011;59991;52.140;5.428;2023-03-01T00:56:15;18.00;;;13.15;;
72115;SDS011;59991;52.140;5.428;2023-03-01T00:56:46;13.80;;;12.40;;
72115;SDS011;59991;52.140;5.428;2023-03-01T00:57:17;15.20;;;13.63;;
72115;SDS011;59991;52.140;5.428;2023-03-01T00:57:49;16.08;;;14.38;;
72115;SDS011;59991;52.140;5.428;2023-03-01T00:58:20;15.93;;;12.88;;
72115;SDS011;59991;52.140;5.428;2023-03-01T00:58:52;14.90;;;13.32;;
72115;SDS011;59991;52.140;5.428;2023-03-01T00:59:23;14.82;;;12.90;;
72115;SDS011;59991;52.140;5.428;2023-03-01T00:59:55;15.45;;;13.80;;
72115;SDS011;59991;52.140;5.428;2023-03-01T01:00:26;17.20;;;12.45;;
72115;SDS011;59991;52.140;5.428;2023-03-01T01:00:58;15.83;;;13.87;;
72115;SDS011;59991;52.140;5.428;2023-03-01T01:01:31;15.07;;;13.57;;
72115;SDS011;59991;52.140;5.428;2023-03-01T01:02:03;18.67;;;13.50;;
72115;SDS011;59991;52.140;5.428;2023-03-01T01:02:34;19.92;;;15.05;;
72115;SDS011;59991;52.140;5.428;2023-03-01T01:03:06;16.35;;;13.93;;
72115;SDS011;59991;52.140;5.428;2023-03-01T01:03:38;14.50;;;13.07;;
72115;SDS011;59991;52.140;5.428;2023-03-01T01:04:10;18.80;;;13.77;;
72115;SDS011;59991;52.140;5.428;2023-03-01T01:04:44;16.23;;;13.05;;
72115;SDS011;59991;52.140;5.428;2023-03-01T01:05:16;15.80;;;14.20;;
72115;SDS011;59991;52.140;5.428;2023-03-01T01:05:52;14.85;;;13.25;;
72115;SDS011;59991;52.140;5.428;2023-03-01T01:06:25;20.33;;;13.63;;
72115;SDS011;59991;52.140;5.428;2023-03-01T01:06:59;15.57;;;12.30;;
72115;SDS011;59991;52.140;5.428;2023-03-01T01:07:30;16.98;;;13.32;;
72115;SDS011;59991;52.140;5.428;2023-03-01T01:08:01;15.52;;;14.00;;
72115;SDS011;59991;52.140;5.428;2023-03-01T01:08:33;14.57;;;12.90;;
72115;SDS011;59991;52.140;5.428;2023-03-01T01:09:05;18.52;;;13.98;;
72115;SDS011;59991;52.140;5.428;2023-03-01T01:09:37;13.80;;;12.40;;
72115;SDS011;59991;52.140;5.428;2023-03-01T01:10:09;15.27;;;13.52;;
72115;SDS011;59991;52.140;5.428;2023-03-01T01:10:48;15.65;;;13.82;;
72115;SDS011;59991;52.140;5.428;2023-03-01T01:11:19;14.25;;;12.82;;
72115;SDS011;59991;52.140;5.428;2023-03-01T01:11:52;13.93;;;12.63;;
72115;SDS011;59991;52.140;5.428;2023-03-01T01:12:23;15.60;;;14.02;;
72115;SDS011;59991;52.140;5.428;2023-03-01T01:12:55;15.40;;;13.02;;
72115;SDS011;59991;52.140;5.428;2023-03-01T01:13:26;16.30;;;13.50;;
72115;SDS011;59991;52.140;5.428;2023-03-01T01:13:58;16.00;;;14.20;;
72115;SDS011;59991;52.140;5.428;2023-03-01T01:14:29;17.38;;;13.40;;
72115;SDS011;59991;52.140;5.428;2023-03-01T01:15:01;19.48;;;14.60;;
72115;SDS011;59991;52.140;5.428;2023-03-01T01:15:33;16.02;;;13.60;;
72115;SDS011;59991;52.140;5.428;2023-03-01T01:16:05;16.20;;;14.00;;
72115;SDS011;59991;52.140;5.428;2023-03-01T01:16:37;19.95;;;14.93;;
72115;SDS011;59991;52.140;5.428;2023-03-01T01:17:09;17.40;;;13.90;;
72115;SDS011;59991;52.140;5.428;2023-03-01T01:17:40;16.98;;;13.45;;
72115;SDS011;59991;52.140;5.428;2023-03-01T01:18:12;16.25;;;12.95;;
72115;SDS011;59991;52.140;5.428;2023-03-01T01:18:44;17.13;;;15.15;;
72115;SDS011;59991;52.140;5.428;2023-03-01T01:19:16;15.55;;;13.10;;
72115;SDS011;59991;52.140;5.428;2023-03-01T01:19:47;19.80;;;14.48;;
72115;SDS011;59991;52.140;5.428;2023-03-01T01:20:19;15.90;;;13.40;;
72115;SDS011;59991;52.140;5.428;2023-03-01T01:20:50;15.52;;;13.88;;
72115;SDS011;59991;52.140;5.428;2023-03-01T01:21:22;16.05;;;14.38;;
72115;SDS011;59991;52.140;5.428;2023-03-01T01:21:55;14.25;;;12.75;;
72115;SDS011;59991;52.140;5.428;2023-03-01T01:22:26;19.60;;;13.50;;
72115;SDS011;59991;52.140;5.428;2023-03-01T01:22:58;14.43;;;13.00;;
72115;SDS011;59991;52.140;5.428;2023-03-01T01:23:29;17.17;;;15.40;;
72115;SDS011;59991;52.140;5.428;2023-03-01T01:24:02;16.77;;;14.82;;
72115;SDS011;59991;52.140;5.428;2023-03-01T01:24:34;16.42;;;14.73;;
72115;SDS011;59991;52.140;5.428;2023-03-01T01:25:06;15.70;;;13.55;;
72115;SDS011;59991;52.140;5.428;2023-03-01T01:25:38;17.27;;;14.25;;
72115;SDS011;59991;52.140;5.428;2023-03-01T01:26:11;16.13;;;14.43;;
72115;SDS011;59991;52.140;5.428;2023-03-01T01:26:45;15.75;;;14.13;;
72115;SDS011;59991;52.140;5.428;2023-03-01T01:27:17;15.52;;;14.10;;
72115;SDS011;59991;52.140;5.428;2023-03-01T01:27:48;14.97;;;13.37;;
72115;SDS011;59991;52.140;5.428;2023-03-01T01:28:19;18.13;;;15.93;;
72115;SDS011;59991;52.140;5.428;2023-03-01T01:28:51;14.95;;;13.43;;
72115;SDS011;59991;52.140;5.428;2023-03-01T01:29:23;17.65;;;15.40;;
72115;SDS011;59991;52.140;5.428;2023-03-01T01:29:55;17.10;;;14.13;;
72115;SDS011;59991;52.140;5.428;2023-03-01T01:30:26;16.75;;;14.30;;
72115;SDS011;59991;52.140;5.428;2023-03-01T01:30:58;17.58;;;14.45;;
72115;SDS011;59991;52.140;5.428;2023-03-01T01:31:30;18.10;;;15.10;;
72115;SDS011;59991;52.140;5.428;2023-03-01T01:32:03;15.95;;;14.05;;
72115;SDS011;59991;52.140;5.428;2023-03-01T01:32:34;16.35;;;13.77;;
72115;SDS011;59991;52.140;5.428;2023-03-01T01:33:06;17.80;;;14.80;;
72115;SDS011;59991;52.140;5.428;2023-03-01T01:33:37;15.57;;;13.98;;
72115;SDS011;59991;52.140;5.428;2023-03-01T01:34:12;17.08;;;14.30;;
72115;SDS011;59991;52.140;5.428;2023-03-01T01:34:46;18.75;;;14.32;;
72115;SDS011;59991;52.140;5.428;2023-03-01T01:35:18;16.73;;;14.93;;
72115;SDS011;59991;52.140;5.428;2023-03-01T01:35:49;19.20;;;16.75;;
72115;SDS011;59991;52.140;5.428;2023-03-01T01:36:21;15.65;;;14.00;;
72115;SDS011;59991;52.140;5.428;2023-03-01T01:36:53;16.60;;;13.63;;
72115;SDS011;59991;52.140;5.428;2023-03-01T01:37:25;17.83;;;16.00;;
72115;SDS011;59991;52.140;5.428;2023-03-01T01:38:02;15.48;;;13.80;;
72115;SDS011;59991;52.140;5.428;2023-03-01T01:38:34;17.03;;;14.63;;
72115;SDS011;59991;52.140;5.428;2023-03-01T01:39:06;17.00;;;13.75;;
72115;SDS011;59991;52.140;5.428;2023-03-01T01:39:38;16.10;;;14.25;;
72115;SDS011;59991;52.140;5.428;2023-03-01T01:40:09;20.63;;;15.68;;
72115;SDS011;59991;52.140;5.428;2023-03-01T01:40:47;17.77;;;15.07;;
72115;SDS011;59991;52.140;5.428;2023-03-01T01:41:20;20.98;;;14.35;;
72115;SDS011;59991;52.140;5.428;2023-03-01T01:41:53;17.17;;;14.95;;
72115;SDS011;59991;52.140;5.428;2023-03-01T01:42:24;17.05;;;14.60;;
72115;SDS011;59991;52.140;5.428;2023-03-01T01:42:56;17.33;;;15.13;;
72115;SDS011;59991;52.140;5.428;2023-03-01T01:43:29;17.85;;;16.00;;
72115;SDS011;59991;52.140;5.428;2023-03-01T01:44:22;16.97;;;15.27;;
72115;SDS011;59991;52.140;5.428;2023-03-01T01:45:58;15.80;;;14.13;;
72115;SDS011;59991;52.140;5.428;2023-03-01T01:46:32;20.40;;;15.00;;
72115;SDS011;59991;52.140;5.428;2023-03-01T01:47:10;16.95;;;15.30;;
72115;SDS011;59991;52.140;5.428;2023-03-01T01:47:43;16.83;;;15.05;;
72115;SDS011;59991;52.140;5.428;2023-03-01T01:48:16;16.73;;;14.93;;
72115;SDS011;59991;52.140;5.428;2023-03-01T01:48:53;19.42;;;14.25;;
72115;SDS011;59991;52.140;5.428;2023-03-01T01:49:32;16.60;;;13.80;;
72115;SDS011;59991;52.140;5.428;2023-03-01T01:50:16;18.48;;;13.93;;
72115;SDS011;59991;52.140;5.428;2023-03-01T01:50:57;15.90;;;13.63;;
72115;SDS011;59991;52.140;5.428;2023-03-01T01:51:32;16.60;;;13.93;;
72115;SDS011;59991;52.140;5.428;2023-03-01T01:52:51;17.23;;;14.57;;
72115;SDS011;59991;52.140;5.428;2023-03-01T01:53:24;16.67;;;14.32;;
72115;SDS011;59991;52.140;5.428;2023-03-01T01:53:58;16.42;;;14.68;;
72115;SDS011;59991;52.140;5.428;2023-03-01T01:54:35;19.52;;;15.68;;
72115;SDS011;59991;52.140;5.428;2023-03-01T01:55:20;17.08;;;13.88;;
72115;SDS011;59991;52.140;5.428;2023-03-01T01:55:56;16.20;;;14.20;;
72115;SDS011;59991;52.140;5.428;2023-03-01T01:56:31;19.65;;;16.15;;
72115;SDS011;59991;52.140;5.428;2023-03-01T01:57:06;17.87;;;14.77;;
72115;SDS011;59991;52.140;5.428;2023-03-01T01:57:46;19.08;;;14.40;;
72115;SDS011;59991;52.140;5.428;2023-03-01T01:58:20;16.98;;;14.38;;
72115;SDS011;59991;52.140;5.428;2023-03-01T01:58:52;16.25;;;14.45;;
72115;SDS011;59991;52.140;5.428;2023-03-01T01:59:25;17.52;;;15.68;;
72115;SDS011;59991;52.140;5.428;2023-03-01T02:00:00;18.05;;;15.10;;
72115;SDS011;59991;52.140;5.428;2023-03-01T02:00:34;18.25;;;14.95;;
72115;SDS011;59991;52.140;5.428;2023-03-01T02:01:05;20.60;;;14.63;;
72115;SDS011;59991;52.140;5.428;2023-03-01T02:01:38;18.00;;;14.98;;
72115;SDS011;59991;52.140;5.428;2023-03-01T02:02:09;17.38;;;14.63;;
72115;SDS011;59991;52.140;5.428;2023-03-01T02:02:42;19.97;;;14.37;;
72115;SDS011;59991;52.140;5.428;2023-03-01T02:03:18;15.68;;;13.98;;
72115;SDS011;59991;52.140;5.428;2023-03-01T02:03:54;17.15;;;14.30;;
72115;SDS011;59991;52.140;5.428;2023-03-01T02:04:25;17.52;;;14.82;;
72115;SDS011;59991;52.140;5.428;2023-03-01T02:06:00;17.67;;;14.82;;
72115;SDS011;59991;52.140;5.428;2023-03-01T02:07:06;14.52;;;13.05;;
72115;SDS011;59991;52.140;5.428;2023-03-01T02:07:42;15.23;;;13.73;;
72115;SDS011;59991;52.140;5.428;2023-03-01T02:08:14;19.40;;;15.20;;
72115;SDS011;59991;52.140;5.428;2023-03-01T02:08:49;19.30;;;13.88;;
72115;SDS011;59991;52.140;5.428;2023-03-01T02:09:22;16.83;;;14.40;;
72115;SDS011;59991;52.140;5.428;2023-03-01T02:09:54;17.25;;;13.95;;
72115;SDS011;59991;52.140;5.428;2023-03-01T02:10:27;16.63;;;14.13;;
72115;SDS011;59991;52.140;5.428;2023-03-01T02:10:59;20.02;;;15.18;;
72115;SDS011;59991;52.140;5.428;2023-03-01T02:11:32;17.85;;;15.45;;
72115;SDS011;59991;52.140;5.428;2023-03-01T02:12:03;17.98;;;14.98;;
72115;SDS011;59991;52.140;5.428;2023-03-01T02:12:35;17.83;;;14.35;;
72115;SDS011;59991;52.140;5.428;2023-03-01T02:13:08;16.73;;;14.68;;
72115;SDS011;59991;52.140;5.428;2023-03-01T02:13:41;20.35;;;15.57;;
72115;SDS011;59991;52.140;5.428;2023-03-01T02:14:14;17.77;;;15.07;;
72115;SDS011;59991;52.140;5.428;2023-03-01T02:14:46;16.97;;;14.80;;
72115;SDS011;59991;52.140;5.428;2023-03-01T02:15:18;19.95;;;15.95;;
72115;SDS011;59991;52.140;5.428;2023-03-01T02:15:50;17.52;;;15.63;;
72115;SDS011;59991;52.140;5.428;2023-03-01T02:16:21;19.63;;;17.25;;
72115;SDS011;59991;52.140;5.428;2023-03-01T02:16:53;23.45;;;16.55;;
72115;SDS011;59991;52.140;5.428;2023-03-01T02:17:25;18.92;;;15.60;;
72115;SDS011;59991;52.140;5.428;2023-03-01T02:17:56;18.88;;;15.82;;
72115;SDS011;59991;52.140;5.428;2023-03-01T02:18:28;18.00;;;15.85;;
72115;SDS011;59991;52.140;5.428;2023-03-01T02:18:59;16.95;;;14.95;;
72115;SDS011;59991;52.140;5.428;2023-03-01T02:23:06;14.55;;;13.02;;
72115;SDS011;59991;52.140;5.428;2023-03-01T02:23:39;17.50;;;15.07;;
72115;SDS011;59991;52.140;5.428;2023-03-01T02:24:31;16.17;;;13.45;;
72115;SDS011;59991;52.140;5.428;2023-03-01T02:26:04;17.23;;;14.07;;
72115;SDS011;59991;52.140;5.428;2023-03-01T02:26:40;17.27;;;13.55;;
72115;SDS011;59991;52.140;5.428;2023-03-01T02:27:17;15.55;;;13.50;;
72115;SDS011;59991;52.140;5.428;2023-03-01T02:28:00;16.40;;;13.77;;
72115;SDS011;59991;52.140;5.428;2023-03-01T02:28:44;15.80;;;13.80;;
72115;SDS011;59991;52.140;5.428;2023-03-01T02:29:16;16.10;;;14.38;;
72115;SDS011;59991;52.140;5.428;2023-03-01T02:29:48;19.10;;;15.35;;
72115;SDS011;59991;52.140;5.428;2023-03-01T02:30:20;15.20;;;13.57;;
72115;SDS011;59991;52.140;5.428;2023-03-01T02:30:53;15.57;;;13.90;;
72115;SDS011;59991;52.140;5.428;2023-03-01T02:31:43;17.23;;;14.27;;
72115;SDS011;59991;52.140;5.428;2023-03-01T02:32:16;17.10;;;14.80;;
72115;SDS011;59991;52.140;5.428;2023-03-01T02:32:56;17.60;;;14.82;;
72115;SDS011;59991;52.140;5.428;2023-03-01T02:33:34;15.10;;;13.50;;
72115;SDS011;59991;52.140;5.428;2023-03-01T02:34:12;16.73;;;15.00;;
72115;SDS011;59991;52.140;5.428;2023-03-01T02:34:46;15.77;;;14.15;;
72115;SDS011;59991;52.140;5.428;2023-03-01T02:35:18;18.15;;;14.13;;
72115;SDS011;59991;52.140;5.428;2023-03-01T02:35:50;15.68;;;14.00;;
72115;SDS011;59991;52.140;5.428;2023-03-01T02:36:26;16.33;;;14.55;;
72115;SDS011;59991;52.140;5.428;2023-03-01T02:37:08;19.23;;;14.25;;
72115;SDS011;59991;52.140;5.428;2023-03-01T02:37:43;17.55;;;14.60;;
72115;SDS011;59991;52.140;5.428;2023-03-01T02:38:15;20.42;;;15.25;;
72115;SDS011;59991;52.140;5.428;2023-03-01T02:38:47;19.25;;;14.73;;
72115;SDS011;59991;52.140;5.428;2023-03-01T02:39:25;16.50;;;14.57;;
72115;SDS011;59991;52.140;5.428;2023-03-01T02:40:01;17.03;;;15.23;;
72115;SDS011;59991;52.140;5.428;2023-03-01T02:40:36;18.17;;;14.93;;
72115;SDS011;59991;52.140;5.428;2023-03-01T02:41:10;20.95;;;15.05;;
72115;SDS011;59991;52.140;5.428;2023-03-01T02:41:48;17.33;;;15.50;;
72115;SDS011;59991;52.140;5.428;2023-03-01T02:42:23;20.00;;;14.95;;
72115;SDS011;59991;52.140;5.428;2023-03-01T02:42:59;18.92;;;14.70;;
72115;SDS011;59991;52.140;5.428;2023-03-01T02:43:31;17.25;;;15.20;;
72115;SDS011;59991;52.140;5.428;2023-03-01T02:44:04;16.42;;;14.65;;
72115;SDS011;59991;52.140;5.428;2023-03-01T02:44:37;20.55;;;15.85;;
72115;SDS011;59991;52.140;5.428;2023-03-01T02:45:08;16.65;;;14.95;;
72115;SDS011;59991;52.140;5.428;2023-03-01T02:45:51;17.13;;;13.97;;
72115;SDS011;59991;52.140;5.428;2023-03-01T02:46:24;18.75;;;14.93;;
72115;SDS011;59991;52.140;5.428;2023-03-01T02:46:56;14.48;;;12.98;;
72115;SDS011;59991;52.140;5.428;2023-03-01T02:47:33;17.77;;;15.68;;
72115;SDS011;59991;52.140;5.428;2023-03-01T02:48:04;17.33;;;15.45;;
72115;SDS011;59991;52.140;5.428;2023-03-01T02:48:49;22.45;;;14.80;;
72115;SDS011;59991;52.140;5.428;2023-03-01T02:49:23;17.83;;;14.57;;
72115;SDS011;59991;52.140;5.428;2023-03-01T02:49:59;17.30;;;14.85;;
72115;SDS011;59991;52.140;5.428;2023-03-01T02:50:40;15.88;;;14.15;;
72115;SDS011;59991;52.140;5.428;2023-03-01T02:53:08;14.43;;;12.90;;
72115;SDS011;59991;52.140;5.428;2023-03-01T02:53:51;15.48;;;12.95;;
72115;SDS011;59991;52.140;5.428;2023-03-01T02:54:31;16.38;;;13.43;;
72115;SDS011;59991;52.140;5.428;2023-03-01T02:55:12;15.43;;;13.05;;
72115;SDS011;59991;52.140;5.428;2023-03-01T02:55:45;18.38;;;14.98;;
72115;SDS011;59991;52.140;5.428;2023-03-01T02:56:17;18.48;;;14.00;;
72115;SDS011;59991;52.140;5.428;2023-03-01T02:56:48;18.63;;;14.70;;
72115;SDS011;59991;52.140;5.428;2023-03-01T02:57:20;16.88;;;14.48;;
72115;SDS011;59991;52.140;5.428;2023-03-01T02:57:54;16.60;;;14.48;;
72115;SDS011;59991;52.140;5.428;2023-03-01T02:58:27;18.07;;;14.47;;
72115;SDS011;59991;52.140;5.428;2023-03-01T02:58:59;16.48;;;14.77;;
72115;SDS011;59991;52.140;5.428;2023-03-01T02:59:32;18.13;;;14.32;;
72115;SDS011;59991;52.140;5.428;2023-03-01T03:00:14;18.27;;;14.68;;
72115;SDS011;59991;52.140;5.428;2023-03-01T03:01:14;17.05;;;14.00;;
72115;SDS011;59991;52.140;5.428;2023-03-01T03:01:47;19.20;;;13.50;;
72115;SDS011;59991;52.140;5.428;2023-03-01T03:02:23;15.57;;;13.40;;
72115;SDS011;59991;52.140;5.428;2023-03-01T03:03:08;19.75;;;14.15;;
72115;SDS011;59991;52.140;5.428;2023-03-01T03:03:41;17.08;;;14.45;;
72115;SDS011;59991;52.140;5.428;2023-03-01T03:04:15;16.42;;;14.73;;
72115;SDS011;59991;52.140;5.428;2023-03-01T03:04:48;20.10;;;15.60;;
72115;SDS011;59991;52.140;5.428;2023-03-01T03:05:21;18.15;;;14.43;;
72115;SDS011;59991;52.140;5.428;2023-03-01T03:05:54;18.50;;;14.48;;
72115;SDS011;59991;52.140;5.428;2023-03-01T03:06:26;17.90;;;14.30;;
72115;SDS011;59991;52.140;5.428;2023-03-01T03:06:57;20.67;;;15.05;;
72115;SDS011;59991;52.140;5.428;2023-03-01T03:07:29;16.48;;;14.40;;
72115;SDS011;59991;52.140;5.428;2023-03-01T03:08:01;16.40;;;14.65;;
72115;SDS011;59991;52.140;5.428;2023-03-01T03:08:34;19.08;;;15.40;;
72115;SDS011;59991;52.140;5.428;2023-03-01T03:09:05;17.88;;;15.43;;
72115;SDS011;59991;52.140;5.428;2023-03-01T03:09:36;16.50;;;14.70;;
72115;SDS011;59991;52.140;5.428;2023-03-01T03:10:09;16.87;;;14.40;;
72115;SDS011;59991;52.140;5.428;2023-03-01T03:10:43;16.58;;;14.82;;
72115;SDS011;59991;52.140;5.428;2023-03-01T03:11:15;16.45;;;14.77;;
72115;SDS011;59991;52.140;5.428;2023-03-01T03:11:46;18.20;;;16.23;;
72115;SDS011;59991;52.140;5.428;2023-03-01T03:12:18;18.05;;;15.85;;
72115;SDS011;59991;52.140;5.428;2023-03-01T03:12:53;18.67;;;15.95;;
72115;SDS011;59991;52.140;5.428;2023-03-01T03:13:26;18.60;;;15.65;;
72115;SDS011;59991;52.140;5.428;2023-03-01T03:13:59;19.73;;;15.82;;
72115;SDS011;59991;52.140;5.428;2023-03-01T03:14:31;19.23;;;15.52;;
72115;SDS011;59991;52.140;5.428;2023-03-01T03:15:07;17.33;;;14.40;;
72115;SDS011;59991;52.140;5.428;2023-03-01T03:15:40;18.53;;;14.87;;
72115;SDS011;59991;52.140;5.428;2023-03-01T03:16:14;16.27;;;14.40;;
72115;SDS011;59991;52.140;5.428;2023-03-01T03:16:47;15.85;;;14.15;;
72115;SDS011;59991;52.140;5.428;2023-03-01T03:17:20;18.90;;;16.92;;
72115;SDS011;59991;52.140;5.428;2023-03-01T03:17:51;17.88;;;15.60;;
72115;SDS011;59991;52.140;5.428;2023-03-01T03:18:24;16.50;;;14.80;;
72115;SDS011;59991;52.140;5.428;2023-03-01T03:18:58;16.38;;;14.07;;
72115;SDS011;59991;52.140;5.428;2023-03-01T03:19:35;15.80;;;13.88;;
72115;SDS011;59991;52.140;5.428;2023-03-01T03:20:07;21.23;;;15.20;;
72115;SDS011;59991;52.140;5.428;2023-03-01T03:20:42;18.92;;;15.20;;
72115;SDS011;59991;52.140;5.428;2023-03-01T03:21:15;19.70;;;15.30;;
72115;SDS011;59991;52.140;5.428;2023-03-01T03:21:47;20.48;;;15.23;;
72115;SDS011;59991;52.140;5.428;2023-03-01T03:22:19;18.85;;;15.40;;
72115;SDS011;59991;52.140;5.428;2023-03-01T03:22:51;19.20;;;15.25;;
72115;SDS011;59991;52.140;5.428;2023-03-01T03:23:24;16.98;;;14.63;;
72115;SDS011;59991;52.140;5.428;2023-03-01T03:23:56;17.48;;;15.50;;
72115;SDS011;59991;52.140;5.428;2023-03-01T03:24:29;16.73;;;15.05;;
72115;SDS011;59991;52.140;5.428;2023-03-01T03:25:08;19.00;;;15.57;;
72115;SDS011;59991;52.140;5.428;2023-03-01T03:25:43;16.33;;;14.65;;